Time;durP1;ratioP1;P1;durP2;ratioP2;P2;SDS_P1;SDS_P2;PMS_P1;PMS_P2;Temp;Humidity;BMP_temperature;BMP_pressure;BME280_temperature;BME280_humidity;BME280_pressure;Samples;Min_cycle;Max_cycle;Signal;HPM_P1;HPM_P2
2021/12/09 00:01:01;;;;;;;99.03;34.67;;;;;;;7.15;71.42;100501.19;5013768;28;20396;-77
2021/12/09 00:03:28;;;;;;;55.95;32.00;;;;;;;7.15;71.76;100503.88;5013790;28;20163;-78
2021/12/09 00:05:58;;;;;;;64.90;32.13;;;;;;;7.13;71.94;100493.28;5013092;28;20133;-77
2021/12/09 00:08:26;;;;;;;88.53;32.85;;;;;;;7.17;71.23;100501.94;5014091;28;20527;-77
2021/12/09 00:10:53;;;;;;;127.20;42.30;;;;;;;6.98;70.62;100494.31;5014245;28;20041;-77
2021/12/09 00:13:19;;;;;;;85.47;33.85;;;;;;;7.02;70.17;100511.03;5014023;28;20030;-78
2021/12/09 00:15:45;;;;;;;93.03;33.67;;;;;;;6.96;70.02;100503.44;5014400;28;20041;-77
2021/12/09 00:18:10;;;;;;;93.25;31.83;;;;;;;6.91;70.63;100514.41;5030742;28;20014;-78
2021/12/09 00:20:36;;;;;;;66.22;29.40;;;;;;;6.87;70.40;100520.09;5017060;28;20025;-77
2021/12/09 00:23:01;;;;;;;91.90;32.28;;;;;;;6.87;70.12;100523.63;5014154;28;20029;-77
2021/12/09 00:25:27;;;;;;;75.70;31.05;;;;;;;6.77;70.08;100521.66;5014116;28;20033;-77
2021/12/09 00:27:52;;;;;;;81.30;30.88;;;;;;;6.72;70.64;100515.78;5014157;28;20085;-77
2021/12/09 00:30:20;;;;;;;66.13;32.25;;;;;;;6.63;70.64;100519.94;5014093;28;20394;-76
2021/12/09 00:32:46;;;;;;;80.70;33.95;;;;;;;6.58;70.92;100514.88;5016992;28;20509;-79
2021/12/09 00:35:15;;;;;;;76.38;31.42;;;;;;;6.47;71.43;100503.19;5017473;28;20495;-78
2021/12/09 00:37:52;;;;;;;85.95;28.17;;;;;;;6.49;71.73;100511.97;5017382;28;20026;-77
2021/12/09 00:40:17;;;;;;;60.00;28.38;;;;;;;6.52;71.63;100511.75;5032579;28;20032;-78
2021/12/09 00:42:43;;;;;;;50.20;27.23;;;;;;;6.53;72.01;100502.78;5017297;28;20034;-77
2021/12/09 00:45:09;;;;;;;64.70;29.60;;;;;;;6.55;71.84;100501.72;5017172;28;20029;-79
2021/12/09 00:47:34;;;;;;;58.28;30.50;;;;;;;6.65;71.60;100509.13;5017354;28;20468;-76
2021/12/09 00:49:59;;;;;;;60.90;28.35;;;;;;;6.60;71.43;100498.75;5020046;28;20026;-76
2021/12/09 00:52:27;;;;;;;66.60;27.60;;;;;;;6.66;71.40;100514.38;5016459;28;20081;-78
2021/12/09 00:54:54;;;;;;;110.07;29.85;;;;;;;6.63;71.00;100505.72;4999131;28;20380;-78
2021/12/09 00:57:20;;;;;;;65.47;30.08;;;;;;;6.63;70.99;100505.72;5016597;28;20032;-78
2021/12/09 00:59:46;;;;;;;66.32;26.70;;;;;;;6.63;71.00;100509.25;5016641;28;20033;-79
2021/12/09 01:02:12;;;;;;;69.40;26.33;;;;;;;6.65;71.24;100501.97;5016771;28;20033;-79
2021/12/09 01:04:38;;;;;;;80.30;29.02;;;;;;;6.62;71.26;100496.84;5016449;28;20026;-78
2021/12/09 01:07:06;;;;;;;108.75;30.73;;;;;;;6.58;71.04;100496.19;5031763;28;20132;-77
2021/12/09 01:09:32;;;;;;;90.07;28.67;;;;;;;6.51;71.45;100489.53;5016437;28;20099;-77
2021/12/09 01:11:57;;;;;;;75.88;29.02;;;;;;;6.53;71.23;100503.66;5016682;28;20034;-76
2021/12/09 01:14:23;;;;;;;88.82;32.95;;;;;;;6.54;71.06;100499.16;5016639;28;20040;-77
2021/12/09 01:16:49;;;;;;;71.72;29.58;;;;;;;6.53;71.51;100498.31;5016228;28;20471;-77
2021/12/09 01:19:14;;;;;;;89.72;30.80;;;;;;;6.55;71.66;100501.72;5016890;28;20105;-77
2021/12/09 01:21:40;;;;;;;63.63;25.77;;;;;;;6.53;71.14;100502.78;5017137;28;20087;-77
2021/12/09 01:24:05;;;;;;;53.22;26.63;;;;;;;6.48;71.34;100484.38;5016924;28;20022;-77
2021/12/09 01:26:31;;;;;;;46.30;25.15;;;;;;;6.53;71.02;100494.78;5016851;28;20041;-76
2021/12/09 01:29:01;;;;;;;66.75;26.92;;;;;;;6.47;71.13;100482.69;5016781;28;20061;-78
2021/12/09 01:31:33;;;;;;;100.65;30.77;;;;;;;6.49;71.17;100493.25;5016922;28;20030;-78
2021/12/09 01:34:03;;;;;;;105.50;27.77;;;;;;;6.43;71.04;100488.31;5017052;28;20032;-78
2021/12/09 01:36:30;;;;;;;132.27;27.05;;;;;;;6.30;71.31;100474.91;5018579;28;20034;-79
2021/12/09 01:38:56;;;;;;;73.10;25.58;;;;;;;6.25;71.29;100482.38;5020904;28;20080;-78
2021/12/09 01:41:22;;;;;;;44.58;22.52;;;;;;;6.18;71.50;100464.19;5016441;28;20030;-78
2021/12/09 01:43:48;;;;;;;56.67;22.17;;;;;;;6.19;71.97;100466.78;5015190;28;20029;-79
2021/12/09 01:46:17;;;;;;;43.90;22.58;;;;;;;6.22;72.13;100479.06;5016120;28;20034;-77
2021/12/09 01:48:45;;;;;;;81.05;29.70;;;;;;;6.19;72.10;100473.94;5016512;28;20021;-78
2021/12/09 01:51:10;;;;;;;57.72;25.35;;;;;;;6.17;71.83;100482.06;5015962;28;20034;-76
2021/12/09 01:53:36;;;;;;;65.28;26.63;;;;;;;6.22;72.04;100493.28;5016575;28;20105;-79
2021/12/09 01:56:06;;;;;;;245.05;40.80;;;;;;;6.26;72.17;100492.13;4998846;28;20101;-78
2021/12/09 01:58:32;;;;;;;96.70;30.05;;;;;;;6.23;72.29;100478.97;5032950;28;20029;-77
2021/12/09 02:00:57;;;;;;;89.10;31.20;;;;;;;6.25;71.69;100481.53;5020060;28;20026;-77
2021/12/09 02:03:24;;;;;;;67.15;26.27;;;;;;;6.29;71.89;100485.72;5015767;28;20045;-77
2021/12/09 02:05:50;;;;;;;69.97;28.38;;;;;;;6.23;71.89;100472.78;5030458;28;20050;-77
2021/12/09 02:08:17;;;;;;;55.17;25.67;;;;;;;6.26;72.20;100486.78;5015727;28;20091;-77
2021/12/09 02:10:45;;;;;;;67.95;28.08;;;;;;;6.24;72.10;100491.34;5015731;28;20030;-78
2021/12/09 02:13:10;;;;;;;66.07;28.38;;;;;;;6.23;71.91;100492.31;5030767;28;20501;-78
2021/12/09 02:15:37;;;;;;;67.35;28.10;;;;;;;6.15;71.67;100493.75;5015647;28;20036;-78
2021/12/09 02:18:05;;;;;;;90.35;28.75;;;;;;;6.19;72.06;100509.50;5015660;28;20026;-77
2021/12/09 02:20:33;;;;;;;82.38;26.38;;;;;;;6.13;72.16;100511.69;5016271;28;20028;-78
2021/12/09 02:22:59;;;;;;;76.88;27.75;;;;;;;6.15;72.21;100517.78;5015505;28;20060;-78
2021/12/09 02:25:24;;;;;;;76.50;27.73;;;;;;;6.13;72.12;100509.03;5015351;28;20089;-77
2021/12/09 02:27:50;;;;;;;58.83;27.10;;;;;;;6.09;72.24;100519.06;5015269;28;20090;-76
2021/12/09 02:30:16;;;;;;;77.07;29.63;;;;;;;6.03;72.21;100522.13;5015311;28;20471;-77
2021/12/09 02:32:46;;;;;;;51.60;27.27;;;;;;;6.02;72.34;100517.75;5015486;28;20101;-77
2021/12/09 02:35:12;;;;;;;37.03;22.60;;;;;;;6.00;72.21;100516.97;5015196;28;20026;-77
2021/12/09 02:37:37;;;;;;;60.72;27.85;;;;;;;6.00;72.42;100528.50;5015281;28;20479;-77
2021/12/09 02:40:06;;;;;;;56.92;24.50;;;;;;;5.97;72.31;100530.53;5015063;28;20037;-77
2021/12/09 02:42:32;;;;;;;65.38;26.92;;;;;;;6.02;72.79;100528.44;5014823;28;20109;-77
2021/12/09 02:44:58;;;;;;;86.90;27.42;;;;;;;5.99;72.90;100521.44;5015015;28;20029;-77
2021/12/09 02:47:24;;;;;;;75.03;25.88;;;;;;;6.03;73.15;100522.13;5014971;28;20552;-77
2021/12/09 02:49:50;;;;;;;64.60;25.73;;;;;;;6.06;73.20;100524.59;5015002;28;20029;-78
2021/12/09 02:52:15;;;;;;;64.45;25.27;;;;;;;6.05;73.63;100524.72;5014745;28;20030;-78
2021/12/09 02:54:41;;;;;;;47.17;23.42;;;;;;;6.12;73.35;100529.53;5014572;28;20030;-77
2021/12/09 02:57:07;;;;;;;51.10;24.63;;;;;;;6.17;73.37;100538.13;5015040;28;20108;-77
2021/12/09 02:59:33;;;;;;;85.68;24.52;;;;;;;6.15;73.30;100529.34;5014866;28;20034;-76
2021/12/09 03:02:03;;;;;;;104.30;26.10;;;;;;;6.12;73.46;100524.19;5014615;28;20049;-77
2021/12/09 03:04:52;;;;;;;78.47;22.88;;;;;;;6.09;73.34;100535.06;5014590;28;20033;-77
2021/12/09 03:07:26;;;;;;;80.20;25.60;;;;;;;6.10;73.46;100531.44;4996648;28;20397;-77
2021/12/09 03:09:55;;;;;;;130.10;25.75;;;;;;;6.07;73.21;100536.13;5015167;28;20028;-77
2021/12/09 03:12:33;;;;;;;81.45;25.00;;;;;;;6.02;73.34;100539.13;5015213;28;20431;-77
2021/12/09 03:15:01;;;;;;;88.28;24.08;;;;;;;5.99;73.60;100539.31;5015917;28;20025;-77
2021/12/09 03:17:27;;;;;;;106.05;25.95;;;;;;;6.05;73.72;100538.91;5014588;28;20029;-77
2021/12/09 03:19:53;;;;;;;96.88;25.35;;;;;;;6.01;73.65;100548.94;5014622;28;20033;-77
2021/12/09 03:22:19;;;;;;;78.28;22.98;;;;;;;5.95;73.78;100545.78;5014563;28;20076;-76
2021/12/09 03:24:45;;;;;;;56.35;26.42;;;;;;;5.89;73.78;100548.84;5014469;28;20021;-77
2021/12/09 03:27:11;;;;;;;99.80;28.23;;;;;;;5.86;74.08;100549.03;5014479;28;20153;-79
2021/12/09 03:29:38;;;;;;;70.60;25.35;;;;;;;5.90;74.29;100550.56;5014988;28;20030;-79
2021/12/09 03:32:08;;;;;;;67.15;25.52;;;;;;;5.86;74.23;100543.69;5022775;28;20034;-78
2021/12/09 03:34:35;;;;;;;99.75;26.25;;;;;;;5.90;74.53;100553.25;5014701;28;20498;-78
2021/12/09 03:37:04;;;;;;;57.47;24.20;;;;;;;5.90;74.62;100543.41;5014525;28;20520;-78
2021/12/09 03:39:32;;;;;;;88.75;27.13;;;;;;;5.92;74.42;100554.00;5032812;28;20073;-78
2021/12/09 03:41:59;;;;;;;68.20;24.60;;;;;;;5.90;74.57;100537.22;5013801;28;20026;-76
2021/12/09 03:44:27;;;;;;;72.00;23.25;;;;;;;5.94;74.53;100552.06;4996141;28;20598;-76
2021/12/09 03:46:55;;;;;;;74.28;25.48;;;;;;;5.96;74.73;100540.34;5014039;28;20022;-76
2021/12/09 03:49:23;;;;;;;64.63;24.50;;;;;;;5.93;74.89;100540.53;5014000;28;20450;-76
2021/12/09 03:51:49;;;;;;;62.35;22.67;;;;;;;5.97;74.74;100531.38;5015023;28;20112;-78
2021/12/09 03:54:14;;;;;;;68.68;23.27;;;;;;;6.01;74.69;100534.72;5013812;28;20052;-77
2021/12/09 03:56:40;;;;;;;67.90;22.92;;;;;;;5.98;74.60;100541.13;5013772;28;20389;-77
2021/12/09 03:59:08;;;;;;;57.75;23.05;;;;;;;5.95;74.67;100538.66;5013886;28;20452;-78
2021/12/09 04:01:35;;;;;;;66.95;23.33;;;;;;;5.95;74.62;100551.13;5013346;28;20057;-78
2021/12/09 04:04:01;;;;;;;62.15;23.42;;;;;;;5.91;74.68;100544.25;5013755;28;20157;-78
2021/12/09 04:06:29;;;;;;;55.55;23.60;;;;;;;5.94;74.90;100541.38;5016709;28;20062;-78
2021/12/09 04:08:55;;;;;;;58.05;22.73;;;;;;;6.00;74.94;100549.88;5020461;28;20054;-79
2021/12/09 04:11:21;;;;;;;47.08;21.95;;;;;;;6.00;74.51;100562.34;5020606;28;20164;-77
2021/12/09 04:13:47;;;;;;;60.33;26.50;;;;;;;6.01;74.34;100551.59;5020665;28;20061;-78
2021/12/09 04:16:12;;;;;;;56.80;21.73;;;;;;;5.87;74.87;100540.91;5020119;28;20116;-78
2021/12/09 04:18:40;;;;;;;75.30;24.23;;;;;;;6.00;74.50;100557.88;5020267;28;20057;-77
2021/12/09 04:21:06;;;;;;;61.88;23.40;;;;;;;6.02;74.37;100555.13;5020408;28;20022;-77
2021/12/09 04:23:32;;;;;;;76.60;24.85;;;;;;;6.01;74.44;100553.41;5020421;28;20471;-77
2021/12/09 04:25:58;;;;;;;81.78;23.60;;;;;;;5.99;74.29;100563.34;5020226;28;20034;-77
2021/12/09 04:28:24;;;;;;;72.10;26.83;;;;;;;5.88;74.47;100553.31;5020364;28;20458;-76
2021/12/09 04:30:49;;;;;;;91.60;27.15;;;;;;;5.85;74.52;100553.50;5020219;28;20490;-79
2021/12/09 04:33:15;;;;;;;72.18;26.20;;;;;;;5.88;74.33;100563.13;5019855;28;20087;-77
2021/12/09 04:35:41;;;;;;;100.55;27.13;;;;;;;5.82;74.60;100552.81;5035220;28;20057;-77
2021/12/09 04:38:07;;;;;;;85.95;33.60;;;;;;;5.83;74.74;100555.41;5035175;28;20029;-77
2021/12/09 04:40:32;;;;;;;93.03;24.90;;;;;;;5.84;74.72;100556.25;5019910;28;20110;-76
2021/12/09 04:43:00;;;;;;;76.00;27.23;;;;;;;5.79;74.88;100553.00;5019923;28;20018;-76
2021/12/09 04:45:30;;;;;;;73.63;27.27;;;;;;;5.73;74.79;100553.38;5019851;28;20032;-77
2021/12/09 04:47:56;;;;;;;62.80;25.42;;;;;;;5.74;75.18;100545.31;5019426;28;20029;-77
2021/12/09 04:50:21;;;;;;;108.43;29.13;;;;;;;5.78;75.21;100540.63;5019338;28;20025;-77
2021/12/09 04:52:47;;;;;;;108.43;30.98;;;;;;;5.82;75.06;100547.47;5019165;28;20364;-76
2021/12/09 04:55:12;;;;;;;150.65;33.22;;;;;;;5.81;75.24;100543.13;5019860;28;20080;-76
2021/12/09 04:57:42;;;;;;;105.63;30.80;;;;;;;5.76;75.10;100531.84;5020019;28;20022;-76
2021/12/09 05:00:11;;;;;;;91.78;27.98;;;;;;;5.77;74.96;100538.91;5019829;28;20030;-78
2021/12/09 05:05:12;;;;;;;90.22;29.63;;;;;;;5.81;75.01;100548.44;5019786;28;20025;-76
2021/12/09 05:07:37;;;;;;;118.15;30.30;;;;;;;5.80;75.20;100550.25;5020141;28;20105;-76
2021/12/09 05:10:04;;;;;;;86.70;28.05;;;;;;;5.85;75.29;100547.28;5019966;28;20033;-78
2021/12/09 05:12:30;;;;;;;71.97;28.13;;;;;;;5.83;75.37;100543.88;5019286;28;20030;-78
2021/12/09 05:14:57;;;;;;;91.13;30.38;;;;;;;5.91;75.34;100549.59;5020088;28;20057;-77
2021/12/09 05:17:22;;;;;;;102.90;28.00;;;;;;;5.87;75.20;100540.09;5018291;28;20030;-77
2021/12/09 05:19:48;;;;;;;99.70;29.33;;;;;;;5.89;75.07;100536.38;5040690;28;20117;-79
2021/12/09 05:22:14;;;;;;;89.72;29.42;;;;;;;5.95;74.82;100545.78;5016445;28;20034;-78
2021/12/09 05:24:40;;;;;;;104.93;30.50;;;;;;;6.01;74.80;100553.41;5018828;28;20118;-78
2021/12/09 05:27:07;;;;;;;90.03;29.33;;;;;;;6.02;74.99;100565.81;5020908;28;20483;-78
2021/12/09 05:29:39;;;;;;;118.78;28.88;;;;;;;6.00;75.01;100563.22;5016585;28;20030;-78
2021/12/09 05:32:13;;;;;;;124.05;29.67;;;;;;;6.05;74.93;100570.09;5016433;28;20503;-78
2021/12/09 05:34:42;;;;;;;103.18;29.27;;;;;;;5.96;74.68;100561.69;5030972;28;20064;-77
2021/12/09 05:37:12;;;;;;;110.13;30.35;;;;;;;6.02;74.68;100571.16;5016239;28;20439;-77
2021/12/09 05:39:38;;;;;;;88.93;31.88;;;;;;;5.99;74.80;100576.69;5031223;28;20029;-77
2021/12/09 05:42:06;;;;;;;129.25;35.58;;;;;;;5.92;74.99;100573.53;5016615;28;20056;-77
2021/12/09 05:44:32;;;;;;;131.68;31.83;;;;;;;5.94;75.31;100579.63;5016104;28;20563;-78
2021/12/09 05:46:58;;;;;;;78.03;28.30;;;;;;;6.00;75.65;100579.22;5015799;28;20029;-78
2021/12/09 05:49:23;;;;;;;95.78;30.92;;;;;;;6.10;75.98;100587.53;5015881;28;20045;-77
2021/12/09 05:51:50;;;;;;;112.28;30.55;;;;;;;6.12;75.42;100585.59;5016347;28;20169;-78
2021/12/09 05:54:15;;;;;;;111.25;35.88;;;;;;;6.11;75.10;100575.91;5016028;28;20040;-78
2021/12/09 05:56:41;;;;;;;97.72;29.15;;;;;;;6.25;75.42;100580.34;5016184;28;20475;-78
2021/12/09 05:59:07;;;;;;;127.88;34.75;;;;;;;6.30;75.14;100583.59;5015887;28;20033;-77
2021/12/09 06:01:34;;;;;;;138.32;35.75;;;;;;;6.26;74.75;100574.91;5015697;28;20050;-77
2021/12/09 06:03:59;;;;;;;64.18;27.67;;;;;;;6.38;75.08;100590.16;5014753;28;20030;-76
2021/12/09 06:06:25;;;;;;;145.70;34.22;;;;;;;6.52;75.26;100592.78;5015414;28;20057;-77
2021/12/09 06:08:50;;;;;;;104.72;30.63;;;;;;;6.56;74.96;100588.94;5015313;28;20041;-78
2021/12/09 06:11:16;;;;;;;94.50;32.95;;;;;;;6.56;74.74;100578.25;5015549;28;20029;-78
2021/12/09 06:13:41;;;;;;;77.60;29.83;;;;;;;6.65;74.25;100586.63;5015210;28;20033;-76
2021/12/09 06:16:08;;;;;;;102.80;37.83;;;;;;;6.63;73.98;100577.84;5015414;28;20050;-77
2021/12/09 06:18:35;;;;;;;108.65;35.20;;;;;;;6.69;73.45;100588.13;5015974;28;20045;-78
2021/12/09 06:21:01;;;;;;;84.30;29.60;;;;;;;6.88;74.06;100588.66;5015058;28;20032;-77
2021/12/09 06:23:26;;;;;;;131.98;39.40;;;;;;;6.94;73.85;100597.09;5014691;28;20368;-78
2021/12/09 06:25:52;;;;;;;132.65;47.17;;;;;;;7.01;73.70;100600.22;5014793;28;20030;-78
2021/12/09 06:28:18;;;;;;;132.27;48.20;;;;;;;7.06;72.97;100600.78;5015003;28;20096;-78
2021/12/09 06:30:44;;;;;;;138.77;49.78;;;;;;;7.05;73.34;100596.38;5014744;28;20063;-77
2021/12/09 06:33:10;;;;;;;120.90;49.15;;;;;;;7.07;73.12;100599.78;5015592;28;20476;-78
2021/12/09 06:35:35;;;;;;;119.50;45.60;;;;;;;7.16;73.41;100604.53;5015095;28;20030;-78
2021/12/09 06:38:01;;;;;;;143.85;41.58;;;;;;;7.16;73.46;100585.81;5015271;28;20017;-77
2021/12/09 06:40:27;;;;;;;110.53;42.05;;;;;;;7.33;73.35;100601.56;5030079;28;20037;-78
2021/12/09 06:42:54;;;;;;;107.20;40.85;;;;;;;7.36;72.61;100601.38;5016390;28;20423;-78
2021/12/09 06:45:21;;;;;;;110.88;40.00;;;;;;;7.46;72.61;100606.94;5015712;28;20024;-77
2021/12/09 06:47:47;;;;;;;100.10;40.28;;;;;;;7.53;73.05;100610.88;5015602;28;20018;-77
2021/12/09 06:50:15;;;;;;;88.90;33.88;;;;;;;7.60;73.08;100614.88;5015265;28;20029;-77
2021/12/09 06:52:41;;;;;;;59.95;32.38;;;;;;;7.62;72.55;100619.16;5014701;28;20438;-77
2021/12/09 06:55:09;;;;;;;88.78;32.13;;;;;;;7.68;72.75;100604.47;5031768;28;20087;-76
2021/12/09 06:57:35;;;;;;;62.50;29.30;;;;;;;7.80;72.41;100624.19;5015773;28;20491;-77
2021/12/09 07:00:01;;;;;;;73.18;28.63;;;;;;;7.88;71.65;100613.81;5028874;28;20108;-77
2021/12/09 07:02:26;;;;;;;106.78;34.75;;;;;;;7.94;71.63;100621.41;5016057;28;20025;-78
2021/12/09 07:04:52;;;;;;;72.93;30.88;;;;;;;8.00;70.97;100619.16;5015163;28;20022;-78
2021/12/09 07:07:18;;;;;;;80.07;29.92;;;;;;;8.06;70.92;100609.81;5015431;28;20057;-79
2021/12/09 07:09:43;;;;;;;53.85;24.60;;;;;;;8.12;70.33;100617.41;5015010;28;20041;-77
2021/12/09 07:12:09;;;;;;;84.07;26.98;;;;;;;8.16;69.96;100618.91;5014594;28;20392;-79
2021/12/09 07:14:35;;;;;;;91.65;25.17;;;;;;;8.30;69.64;100621.47;5015536;28;20108;-78
2021/12/09 07:17:00;;;;;;;63.25;25.55;;;;;;;8.24;69.33;100621.88;5015105;28;20026;-78
2021/12/09 07:19:26;;;;;;;67.95;21.77;;;;;;;8.20;69.14;100612.34;5021484;28;20048;-78
2021/12/09 07:21:52;;;;;;;43.88;22.85;;;;;;;8.31;68.78;100617.84;5015044;28;20026;-77
2021/12/09 07:24:17;;;;;;;49.58;23.27;;;;;;;8.39;68.53;100626.19;5014944;28;20388;-79
2021/12/09 07:26:43;;;;;;;66.35;23.70;;;;;;;8.46;69.40;100611.38;4997188;28;20037;-77
2021/12/09 07:29:09;;;;;;;72.82;24.77;;;;;;;8.53;68.89;100619.81;5014336;28;20104;-78
2021/12/09 07:31:34;;;;;;;37.88;19.48;;;;;;;8.42;68.16;100614.38;5014692;28;20030;-78
2021/12/09 07:34:00;;;;;;;34.33;21.05;;;;;;;8.41;68.74;100626.91;4996645;28;20498;-77
2021/12/09 07:36:27;;;;;;;52.25;21.70;;;;;;;8.56;68.68;100623.13;5014185;28;20037;-77
2021/12/09 07:38:53;;;;;;;96.75;25.08;;;;;;;8.71;69.06;100618.47;5014721;28;20082;-78
2021/12/09 07:41:19;;;;;;;46.47;19.63;;;;;;;8.74;69.40;100624.44;5013923;28;20111;-78
2021/12/09 07:43:50;;;;;;;49.63;18.80;;;;;;;8.73;69.04;100630.78;5014479;28;20026;-79
2021/12/09 07:46:20;;;;;;;37.40;18.27;;;;;;;8.66;68.43;100639.38;5015191;28;20034;-78
2021/12/09 07:48:45;;;;;;;52.55;19.63;;;;;;;8.67;68.32;100625.88;4996640;28;20474;-78
2021/12/09 07:51:11;;;;;;;34.20;18.90;;;;;;;8.80;68.64;100635.69;5014531;28;20034;-78
2021/12/09 07:53:36;;;;;;;64.63;22.45;;;;;;;8.84;68.14;100629.16;5014201;28;20109;-78
2021/12/09 07:56:02;;;;;;;57.10;23.25;;;;;;;8.99;68.11;100638.75;5013915;28;20030;-78
2021/12/09 07:58:28;;;;;;;32.63;17.83;;;;;;;8.99;68.17;100630.69;5013914;28;20105;-78
2021/12/09 08:00:54;;;;;;;38.03;19.20;;;;;;;9.13;67.76;100638.56;5014096;28;20034;-78
2021/12/09 08:03:20;;;;;;;50.00;19.88;;;;;;;9.23;67.71;100644.94;5013748;28;20096;-78
2021/12/09 08:05:47;;;;;;;44.40;19.70;;;;;;;9.30;67.54;100648.84;5013296;28;20057;-78
2021/12/09 08:08:14;;;;;;;40.95;18.73;;;;;;;9.09;67.19;100658.53;5017518;28;20476;-78
2021/12/09 08:10:40;;;;;;;45.45;21.00;;;;;;;9.23;67.67;100653.00;5013572;28;20029;-79
2021/12/09 08:13:07;;;;;;;54.95;20.90;;;;;;;9.33;68.20;100651.31;5013135;28;20034;-78
2021/12/09 08:15:38;;;;;;;52.13;21.83;;;;;;;9.43;67.86;100646.97;5013530;28;20424;-79
2021/12/09 08:20:47;;;;;;;;;;;;;;;9.49;67.46;100646.50;5014417;28;20041;-78
2021/12/09 08:23:13;;;;;;;27.85;15.50;;;;;;;9.49;67.39;100638.44;5018604;28;19910;-77
2021/12/09 08:25:39;;;;;;;34.20;16.40;;;;;;;9.75;67.16;100637.28;5017804;28;20076;-77
2021/12/09 08:28:05;;;;;;;29.00;16.88;;;;;;;9.83;66.41;100640.22;5014179;28;20032;-78
2021/12/09 08:30:30;;;;;;;30.40;16.40;;;;;;;9.89;66.45;100646.09;5014695;28;20045;-78
2021/12/09 08:32:56;;;;;;;33.95;14.32;;;;;;;10.09;66.44;100642.72;5021344;28;20026;-79
2021/12/09 08:35:21;;;;;;;31.10;15.63;;;;;;;9.99;65.45;100639.03;5021653;28;20056;-78
2021/12/09 08:37:48;;;;;;;22.73;13.55;;;;;;;9.96;65.80;100644.63;5017572;28;20060;-79
2021/12/09 08:40:16;;;;;;;26.00;13.45;;;;;;;9.91;65.87;100623.50;5016762;28;20041;-78
2021/12/09 08:42:43;;;;;;;26.95;14.77;;;;;;;9.97;65.57;100623.00;5014008;28;20026;-78
2021/12/09 08:45:10;;;;;;;24.15;14.38;;;;;;;9.97;65.78;100630.25;5013008;28;20026;-78
2021/12/09 08:47:40;;;;;;;28.58;13.63;;;;;;;9.99;66.12;100615.72;5013168;28;20392;-79
2021/12/09 08:50:08;;;;;;;37.58;15.00;;;;;;;10.17;66.12;100618.78;5012943;28;20472;-77
2021/12/09 08:52:34;;;;;;;22.63;14.43;;;;;;;10.27;65.60;100619.78;5014079;28;20022;-77
2021/12/09 08:55:00;;;;;;;34.58;16.75;;;;;;;10.49;65.61;100611.66;5016537;28;20113;-77
2021/12/09 08:57:26;;;;;;;30.20;14.10;;;;;;;10.60;65.64;100605.41;5016806;28;20058;-77
2021/12/09 08:59:52;;;;;;;30.50;14.10;;;;;;;10.62;64.35;100592.69;5017207;28;20088;-79
2021/12/09 09:02:18;;;;;;;21.95;12.98;;;;;;;10.48;64.25;100596.53;5016804;28;20030;-79
2021/12/09 09:04:43;;;;;;;64.70;14.98;;;;;;;10.47;64.84;100591.25;5017253;28;20033;-78
2021/12/09 09:07:09;;;;;;;37.95;13.73;;;;;;;10.48;65.69;100575.03;5016540;28;20046;-77
2021/12/09 09:09:37;;;;;;;41.85;18.23;;;;;;;10.66;65.72;100580.72;5019807;28;20049;-78
2021/12/09 09:12:06;;;;;;;33.22;12.15;;;;;;;10.79;65.14;100571.47;5023777;28;20026;-77
2021/12/09 09:14:32;;;;;;;44.25;14.35;;;;;;;10.93;65.27;100567.66;5015971;28;20030;-77
2021/12/09 09:16:58;;;;;;;30.23;14.75;;;;;;;10.96;64.87;100563.84;5016108;28;20033;-78
2021/12/09 09:19:24;;;;;;;26.50;13.38;;;;;;;11.05;63.98;100572.00;5016409;28;20447;-78
2021/12/09 09:21:50;;;;;;;30.75;12.27;;;;;;;11.08;64.78;100560.13;5016072;28;20531;-79
2021/12/09 09:24:16;;;;;;;35.92;13.20;;;;;;;11.20;64.59;100554.56;5015895;28;20099;-77
2021/12/09 09:26:42;;;;;;;32.20;14.38;;;;;;;11.25;64.41;100559.56;5016323;28;20099;-77
2021/12/09 09:29:08;;;;;;;31.13;13.82;;;;;;;11.30;64.87;100549.25;5016209;28;20500;-77
2021/12/09 09:31:34;;;;;;;23.10;13.07;;;;;;;11.30;65.32;100554.63;5016674;28;20030;-77
2021/12/09 09:34:04;;;;;;;42.13;23.08;;;;;;;11.29;65.07;100540.31;5017100;28;20408;-77
2021/12/09 09:36:31;;;;;;;30.73;11.18;;;;;;;11.18;65.02;100544.91;5016480;28;20140;-77
2021/12/09 09:39:16;;;;;;;56.78;13.85;;;;;;;11.28;65.46;100541.28;5017266;28;20065;-77
2021/12/09 09:41:43;;;;;;;23.48;12.05;;;;;;;11.31;65.31;100545.59;5016450;28;20022;-78
2021/12/09 09:44:15;;;;;;;34.15;13.15;;;;;;;11.24;65.86;100547.09;5016102;28;20030;-78
2021/12/09 09:46:41;;;;;;;22.13;12.88;;;;;;;11.23;66.28;100534.59;5016375;28;20056;-77
2021/12/09 09:49:07;;;;;;;36.75;13.15;;;;;;;11.30;66.64;100536.66;5016218;28;20107;-77
2021/12/09 09:51:35;;;;;;;54.15;14.68;;;;;;;11.40;66.86;100532.19;5016044;28;20455;-79
2021/12/09 09:54:02;;;;;;;17.15;9.95;;;;;;;11.27;66.31;100534.22;5016438;28;20061;-78
2021/12/09 09:56:28;;;;;;;34.88;13.13;;;;;;;11.35;66.84;100525.47;5017846;28;20034;-76
2021/12/09 09:59:00;;;;;;;22.75;11.70;;;;;;;11.34;67.08;100529.16;5015563;28;20082;-78
2021/12/09 10:01:28;;;;;;;28.33;12.43;;;;;;;11.37;67.01;100539.66;5015960;28;20037;-77
2021/12/09 10:03:58;;;;;;;30.88;13.52;;;;;;;11.32;67.27;100533.81;5014064;28;20033;-77
2021/12/09 10:06:23;;;;;;;23.08;11.00;;;;;;;11.45;67.28;100532.63;5029950;28;20074;-77
2021/12/09 10:08:49;;;;;;;29.52;11.80;;;;;;;11.56;67.38;100529.00;5015515;28;20085;-77
2021/12/09 10:11:14;;;;;;;15.23;9.80;;;;;;;11.62;66.67;100522.25;5015040;28;20491;-77
2021/12/09 10:13:43;;;;;;;21.38;11.18;;;;;;;11.53;66.54;100523.88;5015145;28;20465;-78
2021/12/09 10:16:26;;;;;;;24.77;11.70;;;;;;;11.63;67.13;100516.69;5015420;28;20029;-80
2021/12/09 10:18:54;;;;;;;36.80;11.52;;;;;;;11.76;67.03;100517.38;5034120;28;20030;-78
2021/12/09 10:21:31;;;;;;;34.13;9.95;;;;;;;11.88;66.42;100518.97;5025830;28;20085;-78
2021/12/09 10:24:00;;;;;;;17.42;9.18;;;;;;;11.84;66.07;100500.50;5015152;28;20534;-78
2021/12/09 10:26:28;;;;;;;17.05;9.15;;;;;;;11.84;66.59;100500.50;5014870;28;20080;-77
2021/12/09 10:29:06;;;;;;;66.13;14.73;;;;;;;11.97;66.39;100491.22;5014801;28;20049;-78
2021/12/09 10:31:40;;;;;;;21.23;9.38;;;;;;;12.05;66.10;100487.00;5014985;28;20453;-78
2021/12/09 10:34:27;;;;;;;38.35;13.18;;;;;;;12.14;65.95;100480.75;4997032;28;20105;-78
2021/12/09 10:36:56;;;;;;;20.00;9.57;;;;;;;12.24;65.72;100481.63;5014830;28;20033;-78
2021/12/09 10:39:31;;;;;;;24.65;10.05;;;;;;;12.40;64.83;100481.94;5015424;28;20029;-77
2021/12/09 10:42:00;;;;;;;31.98;10.43;;;;;;;12.47;64.75;100483.09;5016299;28;20022;-78
2021/12/09 10:44:35;;;;;;;28.85;8.73;;;;;;;12.57;63.68;100483.94;5014354;28;20088;-77
2021/12/09 10:47:09;;;;;;;17.48;9.32;;;;;;;12.61;63.38;100477.28;5014867;28;20079;-79
2021/12/09 10:49:49;;;;;;;27.75;8.82;;;;;;;12.69;62.59;100484.69;5014904;28;20034;-77
2021/12/09 10:52:24;;;;;;;51.00;14.13;;;;;;;12.65;62.89;100462.50;5014445;28;20018;-78
2021/12/09 10:54:49;;;;;;;19.75;9.07;;;;;;;12.77;62.99;100469.47;5015455;28;20017;-77
2021/12/09 10:57:41;;;;;;;19.98;9.15;;;;;;;12.94;61.02;100460.63;5014388;28;20109;-77
2021/12/09 11:00:38;;;;;;;19.77;10.03;;;;;;;13.04;60.84;100466.03;5015783;28;20046;-79
2021/12/09 11:03:08;;;;;;;26.13;7.75;;;;;;;13.12;59.67;100465.34;5017097;28;20287;-79
2021/12/09 11:05:40;;;;;;;21.33;8.30;;;;;;;13.34;59.18;100454.19;5014206;28;20037;-78
2021/12/09 11:08:14;;;;;;;;;;;;;;;13.49;58.58;100453.56;5014080;28;20091;-77
2021/12/09 11:10:46;;;;;;;34.58;8.18;;;;;;;13.45;58.77;100435.97;5015096;28;19993;-79
2021/12/09 11:13:12;;;;;;;32.50;9.38;;;;;;;13.71;57.93;100449.66;5013882;28;20477;-77
2021/12/09 11:15:58;;;;;;;16.27;9.23;;;;;;;13.88;57.35;100446.13;5013278;28;20534;-78
2021/12/09 11:18:26;;;;;;;23.85;7.47;;;;;;;14.10;56.98;100443.03;5014346;28;20026;-77
2021/12/09 11:20:54;;;;;;;12.48;7.53;;;;;;;13.85;59.92;100426.69;5014273;28;20407;-78